PWSweather.com
Personal Weather Stations
Station Observations
PORTLG2
PortalegrePT

PortalegrePT

Lat: 39.2764932, Lon: -7.423681600000009

Elevation: 1312

Station Type: Davis Vantage Vue

Latest ConditionsUpdated 5:20:03 AM GMT Saturday, Jan 18, 2020
Currently Today's Max Today's Min Today's Average
Temperature 50.2°F10.1°C 53.7°F12.1°C 50.2°F10.1°C 52.0°F11.1°C
Dew Point 48.3°F9.1°C 48.4°F9.1°C 46.3°F7.9°C 47.6°F8.7°C
Winds 6.9 mph SE11.1 kmh SE 12.7 mph -20.4 kmh - - 9.2 mph 14.8 kmh
Wind Gusts 9.2 mph14.8 kmh 16.1 mph25.9 kmh - -
Humidity 93% 93% 76% 85%
Pressure 30.36 in1028.1 mb 30.47 in1031.8 mb 30.36 in1028.1 mb -
Precipitation - 0.19 in4.8 mm - -
Hour Temp Dew Point Humidity Winds Wind Gusts Pressure Precip Precip Rate Daily Precip Total
05:20 AM 50.2°F10.1°C 48.3°F9.1°C 93% 6.9 mph SE11.1 kmh SE 9.2 mph14.8 kmh 30.36 in1028.1 mb - 0.07 in1.8 mm 0.19 in4.8 mm
05:10 AM 50.4°F10.2°C 48.2°F9.0°C 92% 9.2 mph SE14.8 kmh SE 12.7 mph20.4 kmh 30.36 in1028.1 mb - 0.06 in1.5 mm 0.16 in4.1 mm
05:00 AM 50.6°F10.3°C 48.4°F9.1°C 92% 10.4 mph SE16.7 kmh SE 12.7 mph20.4 kmh 30.36 in1028.1 mb - 0.06 in1.5 mm 0.15 in3.8 mm
04:50 AM 50.8°F10.4°C 48.3°F9.1°C 91% 11.5 mph ESE18.5 kmh ESE 13.8 mph22.2 kmh 30.36 in1028.1 mb - 0.06 in1.5 mm 0.14 in3.6 mm
04:40 AM 50.8°F10.4°C 48.3°F9.1°C 91% 9.2 mph ESE14.8 kmh ESE 13.8 mph22.2 kmh 30.37 in1028.4 mb - 0.06 in1.5 mm 0.13 in3.3 mm
04:30 AM 50.9°F10.5°C 48.4°F9.1°C 91% 8.1 mph SE13.0 kmh SE 10.4 mph16.7 kmh 30.37 in1028.4 mb - 0.06 in1.5 mm 0.13 in3.3 mm
04:20 AM 50.8°F10.4°C 48.0°F8.9°C 90% 10.4 mph SE16.7 kmh SE 11.5 mph18.5 kmh 30.37 in1028.4 mb - 0.05 in1.3 mm 0.12 in3.0 mm
04:10 AM 51.0°F10.6°C 48.2°F9.0°C 90% 8.1 mph SE13.0 kmh SE 11.5 mph18.5 kmh 30.39 in1029.1 mb - 0.03 in0.8 mm 0.10 in2.5 mm
04:00 AM 51.1°F10.6°C 48.0°F8.9°C 89% 10.4 mph SE16.7 kmh SE 11.5 mph18.5 kmh 30.39 in1029.1 mb - 0.02 in0.5 mm 0.09 in2.3 mm
03:50 AM 51.2°F10.7°C 48.1°F8.9°C 89% 12.7 mph SE20.4 kmh SE 15.0 mph24.1 kmh 30.39 in1029.1 mb - 0.02 in0.5 mm 0.09 in2.3 mm
03:40 AM 51.2°F10.7°C 47.8°F8.8°C 88% 10.4 mph SE16.7 kmh SE 12.7 mph20.4 kmh 30.39 in1029.1 mb - 0.01 in0.3 mm 0.08 in2.0 mm
03:30 AM 51.4°F10.8°C 48.0°F8.9°C 88% 9.2 mph SE14.8 kmh SE 11.5 mph18.5 kmh 30.39 in1029.1 mb - 0.00 in0.0 mm 0.07 in1.8 mm
03:20 AM 51.7°F10.9°C 48.0°F8.9°C 87% 9.2 mph SE14.8 kmh SE 11.5 mph18.5 kmh 30.40 in1029.5 mb - 0.01 in0.3 mm 0.07 in1.8 mm
03:10 AM 52.0°F11.1°C 48.0°F8.9°C 86% 9.2 mph SE14.8 kmh SE 12.7 mph20.4 kmh 30.40 in1029.5 mb - 0.01 in0.3 mm 0.07 in1.8 mm
03:00 AM 52.1°F11.2°C 48.1°F8.9°C 86% 6.9 mph SE11.1 kmh SE 6.9 mph11.1 kmh 30.41 in1029.8 mb - 0.01 in0.3 mm 0.07 in1.8 mm
02:50 AM 52.3°F11.3°C 47.9°F8.8°C 85% 9.2 mph SE14.8 kmh SE 13.8 mph22.2 kmh 30.40 in1029.5 mb - 0.01 in0.3 mm 0.07 in1.8 mm
02:40 AM 52.6°F11.4°C 47.9°F8.8°C 84% 11.5 mph SE18.5 kmh SE 16.1 mph25.9 kmh 30.40 in1029.5 mb - 0.02 in0.5 mm 0.07 in1.8 mm
02:30 AM 52.6°F11.4°C 47.6°F8.7°C 83% 11.5 mph SE18.5 kmh SE 11.5 mph18.5 kmh 30.40 in1029.5 mb - 0.02 in0.5 mm 0.07 in1.8 mm
02:20 AM 52.6°F11.4°C 47.6°F8.7°C 83% 11.5 mph SE18.5 kmh SE 16.1 mph25.9 kmh 30.40 in1029.5 mb - 0.03 in0.8 mm 0.06 in1.5 mm
02:10 AM 52.3°F11.3°C 47.3°F8.5°C 83% 12.7 mph ESE20.4 kmh ESE 16.1 mph25.9 kmh 30.41 in1029.8 mb - 0.05 in1.3 mm 0.06 in1.5 mm
02:00 AM 52.2°F11.2°C 47.2°F8.4°C 83% 10.4 mph ESE16.7 kmh ESE 12.7 mph20.4 kmh 30.41 in1029.8 mb - 0.06 in1.5 mm 0.06 in1.5 mm
01:50 AM 52.3°F11.3°C 47.3°F8.5°C 83% 11.5 mph E18.5 kmh E 12.7 mph20.4 kmh 30.41 in1029.8 mb - 0.06 in1.5 mm 0.06 in1.5 mm
01:40 AM 52.1°F11.2°C 47.1°F8.4°C 83% 9.2 mph ESE14.8 kmh ESE 12.7 mph20.4 kmh 30.42 in1030.1 mb - 0.06 in1.5 mm 0.06 in1.5 mm
01:30 AM 52.2°F11.2°C 47.2°F8.4°C 83% 10.4 mph ESE16.7 kmh ESE 11.5 mph18.5 kmh 30.42 in1030.1 mb - 0.05 in1.3 mm 0.05 in1.3 mm
01:20 AM 52.2°F11.2°C 46.9°F8.3°C 82% 8.1 mph ESE13.0 kmh ESE 10.4 mph16.7 kmh 30.43 in1030.5 mb - 0.03 in0.8 mm 0.03 in0.8 mm
01:10 AM 52.8°F11.6°C 46.8°F8.2°C 80% 6.9 mph ESE11.1 kmh ESE 10.4 mph16.7 kmh 30.45 in1031.2 mb - 0.02 in0.5 mm 0.02 in0.5 mm
01:00 AM 53.4°F11.9°C 46.7°F8.2°C 78% 5.8 mph ESE9.3 kmh ESE 8.1 mph13.0 kmh 30.46 in1031.5 mb - 0.01 in0.3 mm 0.01 in0.3 mm
12:50 AM 53.7°F12.1°C 46.3°F7.9°C 76% 5.8 mph ESE9.3 kmh ESE 8.1 mph13.0 kmh 30.46 in1031.5 mb - 0.00 in0.0 mm 0.00 in0.0 mm
12:40 AM 53.5°F11.9°C 46.5°F8.1°C 77% 5.8 mph ESE9.3 kmh ESE 6.9 mph11.1 kmh 30.46 in1031.5 mb - 0.00 in0.0 mm 0.00 in0.0 mm
12:30 AM 53.3°F11.8°C 46.3°F7.9°C 77% 6.9 mph ESE11.1 kmh ESE 9.2 mph14.8 kmh 30.47 in1031.8 mb - 0.00 in0.0 mm 0.00 in0.0 mm
12:20 AM 53.5°F11.9°C 46.8°F8.2°C 78% 6.9 mph E11.1 kmh E 6.9 mph11.1 kmh 30.47 in1031.8 mb - 0.00 in0.0 mm 0.00 in0.0 mm
12:10 AM 53.5°F11.9°C 46.8°F8.2°C 78% 6.9 mph ESE11.1 kmh ESE 6.9 mph11.1 kmh 30.47 in1031.8 mb - 0.00 in0.0 mm 0.00 in0.0 mm
12:00 AM 53.3°F11.8°C 47.0°F8.3°C 79% 9.2 mph ESE14.8 kmh ESE 10.4 mph16.7 kmh 30.47 in1031.8 mb - 0.00 in0.0 mm 0.00 in0.0 mm